Terminal Aerodrome Forecast
Issued by NWS

Home | Current Version | Previous Version | Graphics & Text | Print | Product List | Glossary On
Versions: 1 2 3 4 5 6 7 8 9 10 11 12 13 14 15 16 17 18 19 20 21 22 23
000
FTUS43 KLSX 260530
TAFSUS
TAF
KSUS 260530Z 2606/2706 00000KT P6SM SKC
     FM261300 18009KT P6SM BKN150
     FM261800 20011G20KT P6SM BKN060
     FM270000 18004KT P6SM OVC040=

USA.gov is the U.S. government's official web portal to all federal, state and local government web resources and services.